createdAt,value
2022-09-10T00:01:59.498Z,99.90
2022-09-10T00:04:28.065Z,99.90
2022-09-10T00:06:55.628Z,99.90
2022-09-10T00:09:23.159Z,99.90
2022-09-10T00:11:50.106Z,99.90
2022-09-10T00:14:23.071Z,99.90
2022-09-10T00:16:50.349Z,99.90
2022-09-10T00:19:17.474Z,1.00
2022-09-10T00:21:45.113Z,99.90
2022-09-10T00:24:12.447Z,99.90
2022-09-10T00:26:39.706Z,99.90
2022-09-10T00:29:12.583Z,99.90
2022-09-10T00:31:40.030Z,99.90
2022-09-10T00:34:07.473Z,99.90
2022-09-10T00:36:40.346Z,99.90
2022-09-10T00:39:16.555Z,99.90
2022-09-10T00:41:45.581Z,99.90
2022-09-10T00:44:37.456Z,99.90
2022-09-10T00:47:25.459Z,99.90
2022-09-10T00:50:00.340Z,99.90
2022-09-10T00:52:29.347Z,99.90
2022-09-10T00:54:57.302Z,99.90
2022-09-10T00:57:26.197Z,99.90
2022-09-10T00:59:59.268Z,99.90
2022-09-10T01:02:26.295Z,99.90
2022-09-10T01:04:55.335Z,99.90
2022-09-10T01:07:24.075Z,99.90
2022-09-10T01:09:51.414Z,99.90
2022-09-10T01:12:59.637Z,99.90
2022-09-10T01:15:35.523Z,99.90
2022-09-10T01:18:07.118Z,99.90
2022-09-10T01:20:40.442Z,99.90
2022-09-10T01:23:41.328Z,99.90
2022-09-10T01:26:25.562Z,99.90
2022-09-10T01:29:02.313Z,99.90
2022-09-10T01:31:49.833Z,99.90
2022-09-10T01:34:37.377Z,99.90
2022-09-10T01:37:09.512Z,99.90
2022-09-10T01:39:39.245Z,99.90
2022-09-10T01:42:07.062Z,99.90
2022-09-10T01:44:47.445Z,99.90
2022-09-10T01:47:27.894Z,99.90
2022-09-10T01:50:26.407Z,99.90
2022-09-10T01:53:08.162Z,99.90
2022-09-10T01:55:53.990Z,1.00
2022-09-10T01:58:29.492Z,1.00
2022-09-10T02:01:08.038Z,1.00
2022-09-10T02:03:39.330Z,1.00
2022-09-10T02:06:11.862Z,1.00
2022-09-10T02:08:41.374Z,1.00
2022-09-10T02:11:12.737Z,1.00
2022-09-10T02:13:39.768Z,1.00
2022-09-10T02:16:12.424Z,1.00
2022-09-10T02:18:40.134Z,1.00
2022-09-10T02:21:07.519Z,1.00
2022-09-10T02:23:46.195Z,1.00
2022-09-10T02:26:16.265Z,1.00
2022-09-10T02:28:44.094Z,1.00
2022-09-10T02:31:11.299Z,1.00
2022-09-10T02:33:38.273Z,1.00
2022-09-10T02:36:05.159Z,1.00
2022-09-10T02:38:32.038Z,1.00
2022-09-10T02:40:59.414Z,1.00
2022-09-10T02:43:27.483Z,1.00
2022-09-10T02:45:58.532Z,1.00
2022-09-10T02:48:26.868Z,1.00
2022-09-10T02:50:54.497Z,1.00
2022-09-10T02:53:21.339Z,1.00
2022-09-10T02:55:48.836Z,1.00
2022-09-10T02:58:16.599Z,1.00
2022-09-10T03:00:44.058Z,1.00
2022-09-10T03:03:11.713Z,1.00
2022-09-10T03:05:38.988Z,1.00
2022-09-10T03:08:06.626Z,1.00
2022-09-10T03:10:33.634Z,1.00
2022-09-10T03:13:00.735Z,1.00
2022-09-10T03:15:28.029Z,1.00
2022-09-10T03:17:55.274Z,1.00
2022-09-10T03:20:23.120Z,1.00
2022-09-10T03:22:51.480Z,1.00
2022-09-10T03:25:19.644Z,1.00
2022-09-10T03:27:46.497Z,1.00
2022-09-10T03:30:13.528Z,1.00
2022-09-10T03:32:40.371Z,1.00
2022-09-10T03:35:07.470Z,1.00
2022-09-10T03:37:34.346Z,1.00
2022-09-10T03:40:01.263Z,1.00
2022-09-10T03:42:28.152Z,1.00
2022-09-10T03:44:56.698Z,1.00
2022-09-10T03:47:24.000Z,1.00
2022-09-10T03:49:50.851Z,1.00
2022-09-10T03:52:18.107Z,1.00
2022-09-10T03:54:45.631Z,1.00
2022-09-10T03:57:12.492Z,1.00
2022-09-10T03:59:41.203Z,1.00
2022-09-10T04:02:09.338Z,1.00
2022-09-10T04:04:37.549Z,1.00
2022-09-10T04:07:05.497Z,1.00
2022-09-10T04:09:32.601Z,1.00
2022-09-10T04:11:59.973Z,1.00
2022-09-10T04:14:27.113Z,1.00
2022-09-10T04:16:54.304Z,1.00
2022-09-10T04:19:21.136Z,1.00
2022-09-10T04:21:48.472Z,1.00
2022-09-10T04:24:15.501Z,1.00
2022-09-10T04:26:42.282Z,1.00
2022-09-10T04:29:09.122Z,1.00
2022-09-10T04:31:35.936Z,1.00
2022-09-10T04:34:02.859Z,1.00
2022-09-10T04:36:30.263Z,1.00
2022-09-10T04:38:58.188Z,1.00
2022-09-10T04:41:25.037Z,1.00
2022-09-10T04:43:51.807Z,1.00
2022-09-10T04:46:18.654Z,1.00
2022-09-10T04:48:45.513Z,1.00
2022-09-10T04:51:17.802Z,1.00
2022-09-10T04:53:46.304Z,1.00
2022-09-10T04:56:13.393Z,1.00
2022-09-10T04:58:41.224Z,1.00
2022-09-10T05:01:08.496Z,1.00
2022-09-10T05:03:35.472Z,1.00
2022-09-10T05:06:02.605Z,1.00
2022-09-10T05:08:30.233Z,1.00
2022-09-10T05:10:57.792Z,1.00
2022-09-10T05:13:24.610Z,1.00
2022-09-10T05:15:51.334Z,1.00
2022-09-10T05:18:18.133Z,1.00
2022-09-10T05:20:45.123Z,1.00
2022-09-10T05:23:12.193Z,1.00
2022-09-10T05:25:39.210Z,1.00
2022-09-10T05:28:06.105Z,1.00
2022-09-10T05:30:33.146Z,1.00
2022-09-10T05:33:01.383Z,1.00
2022-09-10T05:35:29.034Z,1.00
2022-09-10T05:38:00.746Z,1.00
2022-09-10T05:40:28.888Z,1.00
2022-09-10T05:42:55.996Z,1.00
2022-09-10T05:45:23.524Z,1.00
2022-09-10T05:47:50.520Z,1.00
2022-09-10T05:50:17.836Z,1.00
2022-09-10T05:52:44.803Z,1.00
2022-09-10T05:55:12.412Z,1.00
2022-09-10T05:57:40.373Z,1.00
2022-09-10T06:00:09.273Z,1.00
2022-09-10T06:02:37.066Z,1.00
2022-09-10T06:05:04.163Z,1.00
2022-09-10T06:07:31.504Z,1.00
2022-09-10T06:09:58.403Z,1.00
2022-09-10T06:12:25.262Z,1.00
2022-09-10T06:14:52.706Z,1.00
2022-09-10T06:17:19.883Z,1.00
2022-09-10T06:19:47.022Z,1.00
2022-09-10T06:22:14.533Z,1.00
2022-09-10T06:24:42.001Z,1.00
2022-09-10T06:27:09.610Z,1.00
2022-09-10T06:29:39.663Z,1.00
2022-09-10T06:32:06.426Z,1.00
2022-09-10T06:34:33.173Z,1.00
2022-09-10T06:37:02.546Z,1.00
2022-09-10T06:39:29.368Z,1.00
2022-09-10T06:41:56.110Z,1.00
2022-09-10T06:44:22.926Z,1.00
2022-09-10T06:47:35.831Z,1.00
2022-09-10T06:49:36.947Z,1.00
2022-09-10T06:52:03.971Z,1.00
2022-09-10T06:54:30.747Z,1.00
2022-09-10T06:56:58.051Z,1.00
2022-09-10T06:59:25.002Z,1.00
2022-09-10T07:01:52.017Z,1.00
2022-09-10T07:04:19.001Z,1.00
2022-09-10T07:06:47.562Z,1.00
2022-09-10T07:09:14.920Z,1.00
2022-09-10T07:11:42.050Z,1.00
2022-09-10T07:14:13.944Z,1.00
2022-09-10T07:16:44.659Z,1.00
2022-09-10T07:19:17.319Z,1.00
2022-09-10T07:21:44.839Z,1.00
2022-09-10T07:24:14.900Z,1.00
2022-09-10T07:26:42.005Z,1.00
2022-09-10T07:29:08.753Z,1.00
2022-09-10T07:31:38.256Z,1.00
2022-09-10T07:34:05.525Z,1.00
2022-09-10T07:36:32.627Z,1.00
2022-09-10T07:39:03.114Z,1.00
2022-09-10T07:41:31.847Z,1.00
2022-09-10T07:43:58.726Z,1.00
2022-09-10T07:46:27.940Z,1.00
2022-09-10T07:48:59.695Z,1.00
2022-09-10T07:51:29.218Z,1.00
2022-09-10T07:53:58.099Z,1.00
2022-09-10T07:56:25.326Z,1.00
2022-09-10T07:58:53.880Z,1.00
2022-09-10T08:01:21.327Z,1.00
2022-09-10T08:03:48.198Z,1.00
2022-09-10T08:06:15.879Z,1.00
2022-09-10T08:08:43.135Z,99.90
2022-09-10T08:11:14.269Z,99.90
2022-09-10T08:13:45.338Z,99.90
2022-09-10T08:16:15.214Z,99.90
2022-09-10T08:18:43.687Z,99.90
2022-09-10T08:21:10.977Z,99.90
2022-09-10T08:23:39.741Z,99.90
2022-09-10T08:26:08.120Z,99.90
2022-09-10T08:28:38.280Z,99.90
2022-09-10T08:31:11.610Z,99.90
2022-09-10T08:33:39.764Z,99.90
2022-09-10T08:36:08.652Z,99.90
2022-09-10T08:38:38.698Z,99.90
2022-09-10T08:41:38.477Z,99.90
2022-09-10T08:44:20.693Z,99.90
2022-09-10T08:46:56.397Z,99.90
2022-09-10T08:49:47.744Z,99.90
2022-09-10T08:52:43.818Z,99.90
2022-09-10T08:55:19.823Z,99.90
2022-09-10T08:57:57.706Z,99.90
2022-09-10T09:00:28.752Z,99.90
2022-09-10T09:03:03.162Z,99.90
2022-09-10T09:05:46.310Z,99.90
2022-09-10T09:08:16.629Z,99.90
2022-09-10T09:10:46.121Z,99.90
2022-09-10T09:13:32.232Z,99.90
2022-09-10T09:16:24.691Z,99.90
2022-09-10T09:19:14.193Z,99.90
2022-09-10T09:21:53.268Z,99.90
2022-09-10T09:24:24.751Z,99.90
2022-09-10T09:26:56.654Z,99.90
2022-09-10T09:29:28.752Z,99.90
2022-09-10T09:32:00.418Z,99.90
2022-09-10T09:34:43.387Z,99.90
2022-09-10T09:37:18.087Z,99.90
2022-09-10T09:40:15.416Z,99.90
2022-09-10T09:42:52.921Z,99.90
2022-09-10T09:45:24.804Z,99.90
2022-09-10T09:47:54.302Z,99.90
2022-09-10T09:50:21.577Z,99.90
2022-09-10T09:52:54.425Z,99.90
2022-09-10T09:55:36.052Z,99.90
2022-09-10T09:58:21.187Z,99.90
2022-09-10T10:01:04.741Z,99.90
2022-09-10T10:03:33.714Z,99.90
2022-09-10T10:06:11.642Z,99.90
2022-09-10T10:08:41.315Z,99.90
2022-09-10T10:11:09.395Z,99.90
2022-09-10T10:13:44.241Z,99.90
2022-09-10T10:16:35.750Z,99.90
2022-09-10T10:19:29.344Z,99.90
2022-09-10T10:21:56.120Z,94.70
2022-09-10T10:24:33.884Z,99.90
2022-09-10T10:27:00.848Z,99.90
2022-09-10T10:29:28.088Z,99.90
2022-09-10T10:31:56.278Z,96.30
2022-09-10T10:35:23.202Z,99.90
2022-09-10T10:38:25.423Z,99.90
2022-09-10T10:41:13.296Z,99.90
2022-09-10T10:43:50.287Z,99.00
2022-09-10T10:46:21.981Z,99.90
2022-09-10T10:49:31.851Z,99.90
2022-09-10T10:52:15.377Z,78.40
2022-09-10T10:55:03.771Z,9.20
2022-09-10T10:57:33.328Z,12.50
2022-09-10T11:00:07.451Z,1.00
2022-09-10T11:02:45.429Z,1.00
2022-09-10T11:05:44.545Z,1.00
2022-09-10T11:08:20.659Z,1.00
2022-09-10T11:11:09.253Z,1.00
2022-09-10T11:13:46.257Z,1.00
2022-09-10T11:16:21.738Z,1.00
2022-09-10T11:19:07.814Z,1.00
2022-09-10T11:21:51.330Z,1.00
2022-09-10T11:24:33.895Z,1.00
2022-09-10T11:27:10.231Z,1.00
2022-09-10T11:30:00.193Z,1.00
2022-09-10T11:32:40.402Z,1.00
2022-09-10T11:35:36.917Z,1.00
2022-09-10T11:38:42.354Z,1.00
2022-09-10T11:41:42.215Z,1.00
2022-09-10T11:44:40.265Z,1.00
2022-09-10T11:47:26.832Z,1.00
2022-09-10T11:50:10.982Z,1.00
2022-09-10T11:52:38.301Z,1.00
2022-09-10T11:55:08.511Z,1.00
2022-09-10T11:58:06.162Z,1.00
2022-09-10T12:00:42.602Z,1.00
2022-09-10T12:03:34.360Z,1.00
2022-09-10T12:06:13.648Z,1.00
2022-09-10T12:08:59.919Z,1.00
2022-09-10T12:11:48.001Z,1.00
2022-09-10T12:14:19.929Z,1.00
2022-09-10T12:16:51.962Z,1.00
2022-09-10T12:19:29.691Z,1.00
2022-09-10T12:22:04.880Z,1.00
2022-09-10T12:24:40.359Z,1.00
2022-09-10T12:27:07.743Z,1.00
2022-09-10T12:29:40.872Z,1.00
2022-09-10T12:32:19.931Z,1.00
2022-09-10T12:34:51.082Z,1.00
2022-09-10T12:37:21.749Z,1.00
2022-09-10T12:39:49.763Z,1.00
2022-09-10T12:42:26.854Z,1.00
2022-09-10T12:44:54.121Z,1.00
2022-09-10T12:47:41.217Z,1.00
2022-09-10T12:50:34.971Z,1.00
2022-09-10T12:53:41.753Z,1.00
2022-09-10T12:56:47.148Z,1.00
2022-09-10T12:59:32.447Z,1.00
2022-09-10T13:01:59.794Z,1.00
2022-09-10T13:04:37.638Z,1.00
2022-09-10T13:07:19.794Z,1.00
2022-09-10T13:09:56.051Z,1.00
2022-09-10T13:12:25.950Z,1.00
2022-09-10T13:14:56.429Z,1.00
2022-09-10T13:17:40.813Z,1.00
2022-09-10T13:20:19.937Z,1.00
2022-09-10T13:22:55.805Z,1.00
2022-09-10T13:25:41.572Z,1.00
2022-09-10T13:28:30.124Z,1.00
2022-09-10T13:31:05.122Z,1.00
2022-09-10T13:33:55.156Z,1.00
2022-09-10T13:37:03.864Z,1.00
2022-09-10T13:40:17.277Z,1.00
2022-09-10T13:42:56.231Z,1.00
2022-09-10T13:45:37.539Z,1.00
2022-09-10T13:48:25.878Z,1.00
2022-09-10T13:51:10.626Z,1.00
2022-09-10T13:53:42.476Z,1.00
2022-09-10T13:56:21.318Z,1.00
2022-09-10T13:58:55.517Z,1.00
2022-09-10T14:01:55.498Z,1.00
2022-09-10T14:04:31.963Z,1.00
2022-09-10T14:07:13.031Z,1.00
2022-09-10T14:10:02.012Z,1.00
2022-09-10T14:12:32.939Z,1.00
2022-09-10T14:15:03.356Z,1.00
2022-09-10T14:17:43.044Z,1.00
2022-09-10T14:20:23.858Z,1.00
2022-09-10T14:23:04.798Z,1.00
2022-09-10T14:25:37.551Z,1.00
2022-09-10T14:28:16.543Z,1.00
2022-09-10T14:30:45.018Z,1.00
2022-09-10T14:33:34.047Z,1.00
2022-09-10T14:36:20.624Z,1.00
2022-09-10T14:39:17.544Z,1.00
2022-09-10T14:41:44.667Z,1.00
2022-09-10T14:44:28.272Z,1.00
2022-09-10T14:47:12.774Z,1.00
2022-09-10T14:49:41.429Z,1.00
2022-09-10T14:52:10.232Z,1.00
2022-09-10T14:54:37.041Z,1.00
2022-09-10T14:57:21.692Z,1.00
2022-09-10T14:59:48.483Z,1.00
2022-09-10T15:02:27.321Z,1.00
2022-09-10T15:04:54.385Z,1.00
2022-09-10T15:07:23.708Z,1.00
2022-09-10T15:09:52.934Z,1.00
2022-09-10T15:12:31.092Z,1.00
2022-09-10T15:14:58.381Z,1.00
2022-09-10T15:17:25.473Z,1.00
2022-09-10T15:19:52.342Z,1.00
2022-09-10T15:22:24.652Z,1.00
2022-09-10T15:25:09.026Z,1.00
2022-09-10T15:27:36.706Z,1.00
2022-09-10T15:30:05.286Z,1.00
2022-09-10T15:32:32.108Z,1.00
2022-09-10T15:34:59.157Z,1.00
2022-09-10T15:37:26.071Z,1.00
2022-09-10T15:39:54.585Z,1.00
2022-09-10T15:42:21.455Z,1.00
2022-09-10T15:44:48.222Z,1.00
2022-09-10T15:47:14.985Z,1.00
2022-09-10T15:49:41.734Z,1.00
2022-09-10T15:52:09.448Z,1.00
2022-09-10T15:54:36.209Z,1.00
2022-09-10T15:57:03.098Z,1.00
2022-09-10T15:59:29.841Z,1.00
2022-09-10T16:01:59.440Z,1.00
2022-09-10T16:04:27.700Z,1.00
2022-09-10T16:06:54.440Z,1.00
2022-09-10T16:09:21.196Z,1.00
2022-09-10T16:11:48.258Z,1.00
2022-09-10T16:14:16.713Z,1.00
2022-09-10T16:16:43.454Z,1.00
2022-09-10T16:19:13.057Z,1.00
2022-09-10T16:21:40.249Z,1.00
2022-09-10T16:24:07.556Z,1.00
2022-09-10T16:26:40.307Z,1.00
2022-09-10T16:29:19.465Z,1.00
2022-09-10T16:31:46.549Z,1.00
2022-09-10T16:34:16.330Z,1.00
2022-09-10T16:36:43.683Z,1.00
2022-09-10T16:39:13.945Z,1.00
2022-09-10T16:41:42.361Z,1.00
2022-09-10T16:44:11.001Z,1.00
2022-09-10T16:46:38.522Z,1.00
2022-09-10T16:49:06.304Z,1.00
2022-09-10T16:51:35.125Z,1.00
2022-09-10T16:54:04.596Z,1.00
2022-09-10T16:56:36.283Z,1.00
2022-09-10T16:59:03.558Z,1.00
2022-09-10T17:01:31.216Z,1.00
2022-09-10T17:03:58.069Z,1.00
2022-09-10T17:06:27.277Z,6.60
2022-09-10T17:08:57.113Z,14.80
2022-09-10T17:11:28.476Z,19.60
2022-09-10T17:13:58.535Z,1.00
2022-09-10T17:16:30.596Z,1.00
2022-09-10T17:19:02.658Z,1.00
2022-09-10T17:21:31.806Z,1.00
2022-09-10T17:23:59.588Z,1.00
2022-09-10T17:26:27.124Z,4.90
2022-09-10T17:29:02.561Z,18.20
2022-09-10T17:31:30.583Z,27.10
2022-09-10T17:33:57.599Z,17.50
2022-09-10T17:36:25.368Z,22.30
2022-09-10T17:38:53.656Z,27.20
2022-09-10T17:41:22.505Z,20.70
2022-09-10T17:43:49.804Z,27.10
2022-09-10T17:46:19.020Z,27.00
2022-09-10T17:48:46.158Z,27.10
2022-09-10T17:51:16.289Z,45.30
2022-09-10T17:53:43.869Z,41.40
2022-09-10T17:56:13.173Z,45.00
2022-09-10T17:58:40.088Z,55.60
2022-09-10T18:01:13.864Z,57.50
2022-09-10T18:03:41.075Z,83.20
2022-09-10T18:06:10.616Z,85.10
2022-09-10T18:08:39.241Z,97.00
2022-09-10T18:11:28.179Z,99.90
2022-09-10T18:13:56.898Z,99.90
2022-09-10T18:16:26.520Z,99.90
2022-09-10T18:18:55.877Z,99.90
2022-09-10T18:21:29.475Z,99.90
2022-09-10T18:24:00.230Z,99.90
2022-09-10T18:26:29.333Z,99.90
2022-09-10T18:29:17.743Z,99.90
2022-09-10T18:31:53.417Z,99.90
2022-09-10T18:34:23.891Z,99.90
2022-09-10T18:36:55.230Z,99.90
2022-09-10T18:39:23.391Z,99.90
2022-09-10T18:41:50.643Z,99.90
2022-09-10T18:44:21.742Z,99.90
2022-09-10T18:46:49.854Z,99.90
2022-09-10T18:49:21.197Z,99.90
2022-09-10T18:51:48.915Z,99.90
2022-09-10T18:54:17.296Z,99.90
2022-09-10T18:56:45.115Z,99.90
2022-09-10T18:59:15.163Z,99.90
2022-09-10T19:01:43.726Z,99.90
2022-09-10T19:04:12.942Z,99.90
2022-09-10T19:06:42.717Z,99.90
2022-09-10T19:09:14.554Z,99.90
2022-09-10T19:11:44.821Z,99.90
2022-09-10T19:14:18.047Z,99.90
2022-09-10T19:16:46.748Z,99.90
2022-09-10T19:19:18.354Z,99.90
2022-09-10T19:21:47.487Z,99.90
2022-09-10T19:24:15.395Z,99.90
2022-09-10T19:26:42.862Z,99.90
2022-09-10T19:29:11.857Z,99.90
2022-09-10T19:31:40.055Z,99.90
2022-09-10T19:34:08.214Z,99.90
2022-09-10T19:36:35.889Z,99.90
2022-09-10T19:39:05.262Z,99.90
2022-09-10T19:41:33.969Z,99.90
2022-09-10T19:44:01.415Z,99.90
2022-09-10T19:46:28.704Z,99.90
2022-09-10T19:48:59.250Z,99.90
2022-09-10T19:51:28.653Z,99.90
2022-09-10T19:53:56.235Z,99.90
2022-09-10T19:56:27.265Z,99.90
2022-09-10T19:58:56.102Z,99.90
2022-09-10T20:01:31.172Z,99.90
2022-09-10T20:04:01.640Z,99.90
2022-09-10T20:06:29.911Z,99.90
2022-09-10T20:08:57.479Z,99.90
2022-09-10T20:11:31.327Z,99.90
2022-09-10T20:14:07.938Z,99.90
2022-09-10T20:16:39.371Z,99.90
2022-09-10T20:19:07.048Z,99.90
2022-09-10T20:21:35.630Z,99.90
2022-09-10T20:24:02.439Z,99.90
2022-09-10T20:26:34.370Z,99.90
2022-09-10T20:29:05.168Z,99.90
2022-09-10T20:31:35.441Z,99.90
2022-09-10T20:34:04.814Z,99.90
2022-09-10T20:36:33.391Z,99.90
2022-09-10T20:39:00.381Z,99.90
2022-09-10T20:41:31.421Z,99.90
2022-09-10T20:44:00.264Z,99.90
2022-09-10T20:46:29.334Z,99.90
2022-09-10T20:49:03.279Z,99.90
2022-09-10T20:51:38.782Z,99.90
2022-09-10T20:54:07.755Z,99.90
2022-09-10T20:56:34.669Z,99.90
2022-09-10T20:59:02.053Z,99.90
2022-09-10T21:01:31.193Z,99.90
2022-09-10T21:03:59.763Z,99.90
2022-09-10T21:06:29.175Z,99.90
2022-09-10T21:08:56.126Z,99.90
2022-09-10T21:11:24.830Z,99.90
2022-09-10T21:13:53.577Z,99.90
2022-09-10T21:16:23.280Z,99.90
2022-09-10T21:18:54.818Z,99.90
2022-09-10T21:21:25.738Z,99.90
2022-09-10T21:24:00.986Z,99.90
2022-09-10T21:26:30.248Z,99.90
2022-09-10T21:28:59.353Z,99.90
2022-09-10T21:31:28.264Z,99.90
2022-09-10T21:34:01.884Z,99.90
2022-09-10T21:36:30.795Z,99.90
2022-09-10T21:38:59.959Z,99.90
2022-09-10T21:41:33.427Z,99.90
2022-09-10T21:44:01.781Z,99.90
2022-09-10T21:46:29.607Z,99.90
2022-09-10T21:48:56.838Z,99.90
2022-09-10T21:51:24.417Z,99.90
2022-09-10T21:53:56.281Z,99.90
2022-09-10T21:56:25.934Z,99.90
2022-09-10T21:58:53.758Z,99.90
2022-09-10T22:01:22.689Z,99.90
2022-09-10T22:03:50.211Z,99.90
2022-09-10T22:06:19.044Z,99.90
2022-09-10T22:08:48.220Z,99.90
2022-09-10T22:11:19.206Z,99.90
2022-09-10T22:13:51.952Z,99.90
2022-09-10T22:16:20.837Z,99.90
2022-09-10T22:18:48.065Z,99.90
2022-09-10T22:21:15.786Z,99.90
2022-09-10T22:23:42.752Z,99.90
2022-09-10T22:26:14.822Z,99.90
2022-09-10T22:28:42.961Z,99.90
2022-09-10T22:31:19.186Z,99.90
2022-09-10T22:33:50.683Z,99.90
2022-09-10T22:36:19.980Z,99.90
2022-09-10T22:38:52.051Z,99.90
2022-09-10T22:41:19.117Z,99.90
2022-09-10T22:43:46.185Z,99.90
2022-09-10T22:46:13.204Z,99.90
2022-09-10T22:48:42.731Z,99.90
2022-09-10T22:51:18.276Z,99.90
2022-09-10T22:53:46.362Z,99.90
2022-09-10T22:56:14.432Z,99.90
2022-09-10T22:58:41.409Z,99.90
2022-09-10T23:01:13.879Z,99.90
2022-09-10T23:03:41.714Z,99.90
2022-09-10T23:06:11.871Z,99.90
2022-09-10T23:08:40.136Z,99.90
2022-09-10T23:11:16.459Z,99.90
2022-09-10T23:13:44.774Z,99.90
2022-09-10T23:16:15.793Z,99.90
2022-09-10T23:18:46.539Z,99.90
2022-09-10T23:21:13.894Z,99.90
2022-09-10T23:23:44.231Z,99.90
2022-09-10T23:26:11.382Z,99.90
2022-09-10T23:28:39.210Z,99.90
2022-09-10T23:31:16.582Z,99.90
2022-09-10T23:33:48.692Z,99.90
2022-09-10T23:36:15.522Z,99.90
2022-09-10T23:38:43.544Z,99.90
2022-09-10T23:41:16.144Z,99.90
2022-09-10T23:43:43.833Z,99.90
2022-09-10T23:46:11.699Z,99.90
2022-09-10T23:48:39.010Z,99.90
2022-09-10T23:51:06.558Z,99.90
2022-09-10T23:53:33.606Z,99.90
2022-09-10T23:56:02.733Z,99.90
2022-09-10T23:58:30.083Z,99.90
